createdAt,value
2023-03-04T00:00:46.333Z,98489.06
2023-03-04T00:01:50.493Z,98491.63
2023-03-04T00:02:52.281Z,98491.81
2023-03-04T00:03:55.094Z,98486.66
2023-03-04T00:04:57.358Z,98489.97
2023-03-04T00:06:00.248Z,98495.13
2023-03-04T00:07:03.467Z,98489.06
2023-03-04T00:08:07.003Z,98486.50
2023-03-04T00:09:08.791Z,98488.16
2023-03-04T00:10:12.905Z,98484.72
2023-03-04T00:11:14.797Z,98487.31
2023-03-04T00:12:17.638Z,98482.13
2023-03-04T00:13:21.108Z,98474.44
2023-03-04T00:14:42.356Z,98475.41
2023-03-04T00:15:44.287Z,98477.13
2023-03-04T00:16:49.069Z,98476.22
2023-03-04T00:17:50.844Z,98478.78
2023-03-04T00:18:53.942Z,98469.28
2023-03-04T00:19:56.183Z,98474.44
2023-03-04T00:20:58.964Z,98468.38
2023-03-04T00:22:01.058Z,98466.56
2023-03-04T00:23:05.378Z,98470.88
2023-03-04T00:24:08.002Z,98470.78
2023-03-04T00:25:10.967Z,98466.47
2023-03-04T00:26:13.437Z,98467.34
2023-03-04T00:27:18.046Z,98463.09
2023-03-04T00:28:19.943Z,98458.78
2023-03-04T00:29:23.049Z,98459.69
2023-03-04T00:30:25.314Z,98458.84
2023-03-04T00:31:28.699Z,98459.75
2023-03-04T00:32:30.487Z,98458.94
2023-03-04T00:33:33.279Z,98455.53
2023-03-04T00:34:35.092Z,98459.75
2023-03-04T00:35:38.077Z,98456.38
2023-03-04T00:36:40.140Z,98452.06
2023-03-04T00:37:43.333Z,98453.72
2023-03-04T00:38:46.458Z,98452.81
2023-03-04T00:39:49.209Z,98449.34
2023-03-04T00:40:51.056Z,98446.78
2023-03-04T00:41:53.814Z,98445.88
2023-03-04T00:42:55.578Z,98440.78
2023-03-04T00:43:58.384Z,98443.44
2023-03-04T00:45:00.184Z,98436.56
2023-03-04T00:46:03.054Z,98443.44
2023-03-04T00:47:05.292Z,98435.72
2023-03-04T00:48:08.217Z,98431.41
2023-03-04T00:49:10.001Z,98429.69
2023-03-04T00:50:13.204Z,98433.94
2023-03-04T00:51:14.932Z,98433.94
2023-03-04T00:52:17.692Z,98425.38
2023-03-04T00:53:19.632Z,98427.19
2023-03-04T00:54:23.710Z,98417.75
2023-03-04T00:55:25.989Z,98416.09
2023-03-04T00:56:28.950Z,98414.44
2023-03-04T00:57:30.711Z,98415.25
2023-03-04T00:58:33.474Z,98410.03
2023-03-04T00:59:36.690Z,98400.75
2023-03-04T01:00:38.736Z,98395.63
2023-03-04T01:01:41.693Z,98404.97
2023-03-04T01:02:43.675Z,98399.00
2023-03-04T01:03:46.440Z,98393.06
2023-03-04T01:04:48.228Z,98397.34
2023-03-04T01:05:51.660Z,98398.19
2023-03-04T01:06:53.491Z,98395.53
2023-03-04T01:07:56.571Z,98398.03
2023-03-04T01:08:58.877Z,98391.13
2023-03-04T01:10:02.993Z,98388.56
2023-03-04T01:11:05.153Z,98386.00
2023-03-04T01:12:08.508Z,98384.34
2023-03-04T01:13:10.348Z,98378.38
2023-03-04T01:14:13.097Z,98381.78
2023-03-04T01:15:15.424Z,98381.69
2023-03-04T01:16:18.211Z,98374.06
2023-03-04T01:17:20.122Z,98384.25
2023-03-04T01:18:24.501Z,98380.81
2023-03-04T01:19:26.401Z,98368.84
2023-03-04T01:20:29.202Z,98375.72
2023-03-04T01:21:31.288Z,98367.13
2023-03-04T01:22:34.479Z,98367.13
2023-03-04T01:23:37.331Z,98373.97
2023-03-04T01:24:39.229Z,98364.56
2023-03-04T01:25:43.673Z,98362.00
2023-03-04T01:26:45.478Z,98368.00
2023-03-04T01:27:48.385Z,98358.66
2023-03-04T01:28:50.315Z,98355.16
2023-03-04T01:29:53.122Z,98366.34
2023-03-04T01:30:55.354Z,98361.22
2023-03-04T01:31:59.796Z,98362.97
2023-03-04T01:33:01.611Z,98361.22
2023-03-04T01:34:04.492Z,98353.50
2023-03-04T01:35:07.354Z,98355.25
2023-03-04T01:36:10.121Z,98350.03
2023-03-04T01:37:13.678Z,98352.59
2023-03-04T01:38:16.407Z,98336.34
2023-03-04T01:39:18.279Z,98343.22
2023-03-04T01:40:21.544Z,98336.34
2023-03-04T01:41:26.028Z,98355.16
2023-03-04T01:42:30.831Z,98351.78
2023-03-04T01:43:34.184Z,98347.47
2023-03-04T01:44:36.025Z,98350.84
2023-03-04T01:45:40.293Z,98352.59
2023-03-04T01:46:47.567Z,98344.88
2023-03-04T01:47:51.200Z,98338.00
2023-03-04T01:48:53.046Z,98333.72
2023-03-04T01:49:57.951Z,98336.34
2023-03-04T01:51:03.005Z,98327.72
2023-03-04T01:52:07.746Z,98334.63
2023-03-04T01:53:16.692Z,98339.69
2023-03-04T01:54:20.044Z,98335.38
2023-03-04T01:55:24.382Z,98332.72
2023-03-04T01:56:30.404Z,98329.25
2023-03-04T01:57:36.316Z,98333.56
2023-03-04T01:58:38.161Z,98341.34
2023-03-04T01:59:41.862Z,98335.31
2023-03-04T02:00:43.688Z,98325.03
2023-03-04T02:01:49.020Z,98325.84
2023-03-04T02:02:53.327Z,98337.03
2023-03-04T02:03:56.090Z,98331.06
2023-03-04T02:04:57.886Z,98328.50
2023-03-04T02:06:00.795Z,98320.81
2023-03-04T02:07:04.589Z,98324.19
2023-03-04T02:08:08.081Z,98321.63
2023-03-04T02:09:11.801Z,98324.19
2023-03-04T02:10:14.745Z,98316.50
2023-03-04T02:11:17.043Z,98320.72
2023-03-04T02:12:21.235Z,98322.44
2023-03-04T02:13:23.270Z,98318.16
2023-03-04T02:14:27.977Z,98318.06
2023-03-04T02:15:30.625Z,98324.88
2023-03-04T02:16:33.809Z,98319.66
2023-03-04T02:17:35.624Z,98318.00
2023-03-04T02:18:40.079Z,98312.88
2023-03-04T02:19:45.319Z,98315.34
2023-03-04T02:20:57.924Z,98309.38
2023-03-04T02:21:59.987Z,98301.75
2023-03-04T02:23:10.602Z,98304.38
2023-03-04T02:24:15.698Z,98307.88
2023-03-04T02:25:20.108Z,98299.31
2023-03-04T02:26:24.969Z,98290.69
2023-03-04T02:27:28.784Z,98290.69
2023-03-04T02:28:31.948Z,98289.88
2023-03-04T02:29:33.777Z,98286.47
2023-03-04T02:30:36.706Z,98288.13
2023-03-04T02:31:40.813Z,98284.00
2023-03-04T02:32:43.812Z,98277.13
2023-03-04T02:33:45.609Z,98286.56
2023-03-04T02:34:50.346Z,98284.81
2023-03-04T02:35:52.249Z,98279.69
2023-03-04T02:36:55.683Z,98273.72
2023-03-04T02:37:57.579Z,98287.47
2023-03-04T02:39:03.754Z,98285.78
2023-03-04T02:40:07.400Z,98274.69
2023-03-04T02:41:13.367Z,98278.91
2023-03-04T02:42:16.799Z,98283.19
2023-03-04T02:43:19.876Z,98277.22
2023-03-04T02:44:24.612Z,98279.78
2023-03-04T02:45:40.417Z,98266.16
2023-03-04T02:46:43.214Z,98277.34
2023-03-04T02:47:46.049Z,98268.91
2023-03-04T02:48:47.889Z,98268.91
2023-03-04T02:49:50.688Z,98270.56
2023-03-04T02:50:53.568Z,98261.09
2023-03-04T02:52:00.913Z,98265.41
2023-03-04T02:53:03.068Z,98262.06
2023-03-04T02:54:06.162Z,98262.91
2023-03-04T02:55:09.469Z,98256.94
2023-03-04T02:56:12.279Z,98262.06
2023-03-04T02:57:16.604Z,98260.44
2023-03-04T02:58:22.841Z,98256.13
2023-03-04T02:59:24.758Z,98262.06
2023-03-04T03:00:29.038Z,98250.91
2023-03-04T03:01:30.950Z,98258.63
2023-03-04T03:02:33.823Z,98256.88
2023-03-04T03:03:36.874Z,98251.75
2023-03-04T03:04:40.227Z,98255.16
2023-03-04T03:05:45.933Z,98252.56
2023-03-04T03:06:48.110Z,98250.91
2023-03-04T03:07:51.134Z,98254.31
2023-03-04T03:08:52.982Z,98262.84
2023-03-04T03:09:56.712Z,98261.94
2023-03-04T03:10:58.590Z,98255.97
2023-03-04T03:12:02.219Z,98257.63
2023-03-04T03:13:07.182Z,98255.88
2023-03-04T03:14:09.936Z,98261.94
2023-03-04T03:15:12.426Z,98261.09
2023-03-04T03:16:15.241Z,98259.38
2023-03-04T03:17:17.077Z,98261.09
2023-03-04T03:18:20.087Z,98257.72
2023-03-04T03:19:23.617Z,98262.84
2023-03-04T03:20:27.288Z,98265.41
2023-03-04T03:21:29.122Z,98258.63
2023-03-04T03:22:32.242Z,98256.06
2023-03-04T03:23:34.073Z,98257.75
2023-03-04T03:24:36.875Z,98260.28
2023-03-04T03:25:38.981Z,98259.44
2023-03-04T03:26:42.164Z,98263.69
2023-03-04T03:27:44.016Z,98258.53
2023-03-04T03:28:50.058Z,98255.06
2023-03-04T03:29:51.954Z,98250.84
2023-03-04T03:30:54.777Z,98250.00
2023-03-04T03:31:57.064Z,98255.16
2023-03-04T03:32:59.910Z,98262.84
2023-03-04T03:34:01.816Z,98258.53
2023-03-04T03:35:05.276Z,98254.22
2023-03-04T03:36:09.600Z,98262.75
2023-03-04T03:37:11.446Z,98260.19
2023-03-04T03:38:14.333Z,98256.78
2023-03-04T03:39:16.402Z,98253.41
2023-03-04T03:40:19.531Z,98255.88
2023-03-04T03:41:21.749Z,98258.44
2023-03-04T03:42:24.595Z,98260.09
2023-03-04T03:43:26.401Z,98251.56
2023-03-04T03:44:30.784Z,98257.53
2023-03-04T03:45:32.579Z,98249.78
2023-03-04T03:46:36.001Z,98254.97
2023-03-04T03:47:37.875Z,98246.44
2023-03-04T03:48:40.635Z,98248.19
2023-03-04T03:49:42.423Z,98242.22
2023-03-04T03:50:45.562Z,98246.44
2023-03-04T03:51:47.416Z,98244.78
2023-03-04T03:52:50.265Z,98244.69
2023-03-04T03:53:52.075Z,98248.94
2023-03-04T03:54:54.851Z,98248.94
2023-03-04T03:55:56.638Z,98248.03
2023-03-04T03:56:59.475Z,98248.94
2023-03-04T03:58:01.293Z,98249.00
2023-03-04T03:59:04.199Z,98251.66
2023-03-04T04:00:26.672Z,98248.50
2023-03-04T04:01:28.477Z,98252.03
2023-03-04T04:02:31.396Z,98245.25
2023-03-04T04:03:33.231Z,98247.16
2023-03-04T04:04:36.041Z,98248.88
2023-03-04T04:05:37.857Z,98254.09
2023-03-04T04:06:40.603Z,98253.25
2023-03-04T04:07:42.577Z,98247.31
2023-03-04T04:08:45.595Z,98251.59
2023-03-04T04:09:48.026Z,98245.66
2023-03-04T04:10:50.809Z,98244.00
2023-03-04T04:11:52.613Z,98243.06
2023-03-04T04:12:55.403Z,98244.00
2023-03-04T04:13:57.207Z,98240.59
2023-03-04T04:14:59.968Z,98235.50
2023-03-04T04:16:03.245Z,98235.50
2023-03-04T04:17:06.008Z,98233.03
2023-03-04T04:18:09.406Z,98238.25
2023-03-04T04:19:17.026Z,98235.69
2023-03-04T04:20:19.832Z,98234.88
2023-03-04T04:21:21.813Z,98232.34
2023-03-04T04:22:24.563Z,98234.91
2023-03-04T04:23:26.484Z,98240.06
2023-03-04T04:24:29.334Z,98238.47
2023-03-04T04:25:31.181Z,98224.00
2023-03-04T04:26:34.257Z,98230.78
2023-03-04T04:27:36.486Z,98239.31
2023-03-04T04:28:39.613Z,98237.56
2023-03-04T04:29:41.906Z,98240.00
2023-03-04T04:30:44.695Z,98234.78
2023-03-04T04:31:47.860Z,98228.81
2023-03-04T04:32:51.033Z,98226.28
2023-03-04T04:33:52.866Z,98234.00
2023-03-04T04:34:55.617Z,98234.19
2023-03-04T04:35:57.512Z,98222.25
2023-03-04T04:37:00.236Z,98230.69
2023-03-04T04:38:02.176Z,98233.34
2023-03-04T04:39:05.390Z,98235.97
2023-03-04T04:40:08.056Z,98231.69
2023-03-04T04:41:18.302Z,98231.75
2023-03-04T04:42:20.077Z,98236.97
2023-03-04T04:43:22.850Z,98231.09
2023-03-04T04:44:24.700Z,98232.75
2023-03-04T04:45:27.650Z,98237.06
2023-03-04T04:46:29.978Z,98231.09
2023-03-04T04:47:34.124Z,98244.75
2023-03-04T04:48:35.958Z,98233.66
2023-03-04T04:49:38.842Z,98235.31
2023-03-04T04:50:40.672Z,98242.25
2023-03-04T04:51:43.638Z,98235.31
2023-03-04T04:52:45.422Z,98230.09
2023-03-04T04:53:49.672Z,98244.59
2023-03-04T04:54:51.640Z,98234.25
2023-03-04T04:55:54.375Z,98233.34
2023-03-04T04:56:56.207Z,98229.94
2023-03-04T04:57:59.077Z,98235.00
2023-03-04T04:59:04.757Z,98231.53
2023-03-04T05:00:08.065Z,98232.44
2023-03-04T05:01:11.361Z,98230.59
2023-03-04T05:02:13.160Z,98226.38
2023-03-04T05:03:21.399Z,98227.31
2023-03-04T05:04:24.792Z,98221.34
2023-03-04T05:05:27.638Z,98223.91
2023-03-04T05:06:29.415Z,98229.94
2023-03-04T05:07:32.727Z,98228.28
2023-03-04T05:08:34.895Z,98220.56
2023-03-04T05:09:38.466Z,98226.56
2023-03-04T05:10:40.300Z,98224.97
2023-03-04T05:11:43.151Z,98218.09
2023-03-04T05:12:45.271Z,98226.69
2023-03-04T05:13:49.112Z,98216.50
2023-03-04T05:14:51.092Z,98218.25
2023-03-04T05:15:54.586Z,98224.22
2023-03-04T05:16:56.691Z,98222.53
2023-03-04T05:17:59.440Z,98214.84
2023-03-04T05:19:02.567Z,98210.59
2023-03-04T05:20:07.166Z,98215.75
2023-03-04T05:21:09.138Z,98219.22
2023-03-04T05:22:11.902Z,98206.38
2023-03-04T05:23:13.728Z,98210.78
2023-03-04T05:24:16.827Z,98214.22
2023-03-04T05:25:18.612Z,98214.22
2023-03-04T05:26:21.569Z,98206.47
2023-03-04T05:27:23.500Z,98210.59
2023-03-04T05:28:26.284Z,98210.59
2023-03-04T05:29:28.521Z,98211.44
2023-03-04T05:30:31.273Z,98213.13
2023-03-04T05:31:33.210Z,98207.13
2023-03-04T05:32:36.071Z,98212.25
2023-03-04T05:33:38.247Z,98202.16
2023-03-04T05:34:42.353Z,98208.28
2023-03-04T05:35:45.079Z,98209.09
2023-03-04T05:36:47.856Z,98193.78
2023-03-04T05:37:49.632Z,98201.47
2023-03-04T05:38:52.486Z,98197.25
2023-03-04T05:39:54.245Z,98199.81
2023-03-04T05:40:58.580Z,98205.78
2023-03-04T05:42:00.509Z,98199.91
2023-03-04T05:43:03.428Z,98198.16
2023-03-04T05:44:07.229Z,98197.25
2023-03-04T05:45:09.643Z,98201.66
2023-03-04T05:46:14.951Z,98200.75
2023-03-04T05:47:16.760Z,98207.53
2023-03-04T05:48:19.653Z,98204.97
2023-03-04T05:49:21.404Z,98201.47
2023-03-04T05:50:25.529Z,98199.75
2023-03-04T05:51:27.892Z,98199.75
2023-03-04T05:52:30.763Z,98202.31
2023-03-04T05:53:32.511Z,98202.31
2023-03-04T05:54:35.579Z,98202.31
2023-03-04T05:55:37.420Z,98206.38
2023-03-04T05:56:40.141Z,98197.84
2023-03-04T05:57:42.226Z,98202.00
2023-03-04T05:58:47.427Z,98196.81
2023-03-04T05:59:49.188Z,98207.97
2023-03-04T06:00:51.984Z,98198.53
2023-03-04T06:01:53.854Z,98196.84
2023-03-04T06:02:56.686Z,98196.84
2023-03-04T06:03:58.572Z,98193.47
2023-03-04T06:05:01.435Z,98193.47
2023-03-04T06:06:05.179Z,98189.16
2023-03-04T06:07:08.223Z,98192.59
2023-03-04T06:08:10.146Z,98198.53
2023-03-04T06:09:13.147Z,98189.94
2023-03-04T06:10:16.820Z,98191.56
2023-03-04T06:11:19.808Z,98196.56
2023-03-04T06:12:21.693Z,98193.19
2023-03-04T06:13:24.853Z,98187.13
2023-03-04T06:14:26.694Z,98177.69
2023-03-04T06:15:29.515Z,98183.72
2023-03-04T06:16:31.387Z,98190.53
2023-03-04T06:17:34.383Z,98188.88
2023-03-04T06:18:36.493Z,98183.72
2023-03-04T06:19:39.322Z,98188.88
2023-03-04T06:20:42.153Z,98186.31
2023-03-04T06:21:45.334Z,98187.13
2023-03-04T06:22:48.175Z,98187.03
2023-03-04T06:23:50.001Z,98186.94
2023-03-04T06:24:53.812Z,98184.31
2023-03-04T06:25:57.100Z,98181.00
2023-03-04T06:26:59.845Z,98186.94
2023-03-04T06:28:01.594Z,98185.16
2023-03-04T06:29:05.515Z,98191.03
2023-03-04T06:30:08.625Z,98177.34
2023-03-04T06:31:11.838Z,98190.13
2023-03-04T06:32:14.079Z,98190.13
2023-03-04T06:33:16.863Z,98201.22
2023-03-04T06:34:19.418Z,98188.31
2023-03-04T06:35:22.710Z,98194.28
2023-03-04T06:36:24.496Z,98195.94
2023-03-04T06:37:28.662Z,98199.25
2023-03-04T06:38:30.507Z,98206.94
2023-03-04T06:39:33.658Z,98204.38
2023-03-04T06:40:35.523Z,98203.50
2023-03-04T06:41:38.522Z,98216.34
2023-03-04T06:42:40.896Z,98214.59
2023-03-04T06:43:43.607Z,98207.63
2023-03-04T06:44:45.537Z,98199.09
2023-03-04T06:45:48.471Z,98205.88
2023-03-04T06:46:50.276Z,98216.06
2023-03-04T06:47:53.133Z,98213.50
2023-03-04T06:48:55.895Z,98212.69
2023-03-04T06:49:57.783Z,98221.16
2023-03-04T06:51:06.477Z,98201.66
2023-03-04T06:52:11.166Z,98215.34
2023-03-04T06:53:15.247Z,98222.94
2023-03-04T06:54:17.084Z,98222.94
2023-03-04T06:55:20.006Z,98228.91
2023-03-04T06:56:21.771Z,98225.47
2023-03-04T06:57:24.536Z,98231.25
2023-03-04T06:58:26.548Z,98232.03
2023-03-04T06:59:29.308Z,98224.22
2023-03-04T07:00:31.358Z,98233.59
2023-03-04T07:01:34.750Z,98231.78
2023-03-04T07:02:36.554Z,98237.75
2023-03-04T07:03:39.421Z,98232.53
2023-03-04T07:04:42.256Z,98237.56
2023-03-04T07:05:44.317Z,98234.13
2023-03-04T07:06:47.500Z,98234.03
2023-03-04T07:07:50.075Z,98232.28
2023-03-04T07:08:54.482Z,98233.22
2023-03-04T07:09:57.272Z,98228.13
2023-03-04T07:10:59.061Z,98232.44
2023-03-04T07:12:01.906Z,98235.91
2023-03-04T07:13:03.783Z,98237.66
2023-03-04T07:14:06.596Z,98230.78
2023-03-04T07:15:10.537Z,98237.66
2023-03-04T07:16:14.392Z,98233.25
2023-03-04T07:17:17.196Z,98231.56
2023-03-04T07:18:18.996Z,98238.41
2023-03-04T07:19:21.833Z,98236.75
2023-03-04T07:20:23.661Z,98230.03
2023-03-04T07:21:26.946Z,98236.00
2023-03-04T07:22:29.897Z,98228.31
2023-03-04T07:23:31.849Z,98235.91
2023-03-04T07:24:36.156Z,98224.72
2023-03-04T07:25:38.015Z,98227.25
2023-03-04T07:26:40.835Z,98227.16
2023-03-04T07:27:43.581Z,98229.63
2023-03-04T07:28:46.868Z,98232.97
2023-03-04T07:29:48.629Z,98244.06
2023-03-04T07:30:51.364Z,98236.19
2023-03-04T07:31:54.022Z,98236.97
2023-03-04T07:32:58.650Z,98241.09
2023-03-04T07:34:01.978Z,98235.03
2023-03-04T07:35:05.275Z,98233.28
2023-03-04T07:36:07.221Z,98221.34
2023-03-04T07:37:10.012Z,98233.22
2023-03-04T07:38:11.809Z,98230.66
2023-03-04T07:39:14.740Z,98241.59
2023-03-04T07:40:18.278Z,98236.44
2023-03-04T07:41:21.831Z,98246.66
2023-03-04T07:42:23.751Z,98225.34
2023-03-04T07:43:34.210Z,98230.47
2023-03-04T07:44:36.453Z,98233.16
2023-03-04T07:45:39.222Z,98232.22
2023-03-04T07:46:41.376Z,98230.47
2023-03-04T07:47:44.415Z,98233.81
2023-03-04T07:48:46.215Z,98237.97
2023-03-04T07:49:48.994Z,98231.06
2023-03-04T07:50:50.857Z,98231.84
2023-03-04T07:51:53.589Z,98235.97
2023-03-04T07:52:55.887Z,98240.19
2023-03-04T07:54:00.823Z,98231.75
2023-03-04T07:55:02.747Z,98229.19
2023-03-04T07:56:08.242Z,98224.94
2023-03-04T07:57:11.020Z,98236.97
2023-03-04T07:58:12.849Z,98235.06
2023-03-04T07:59:15.605Z,98231.59
2023-03-04T08:00:36.169Z,98229.84
2023-03-04T08:01:39.403Z,98236.66
2023-03-04T08:02:41.535Z,98237.31
2023-03-04T08:03:44.398Z,98239.06
2023-03-04T08:04:46.508Z,98238.97
2023-03-04T08:05:49.441Z,98244.84
2023-03-04T08:06:51.273Z,98240.47
2023-03-04T08:07:57.781Z,98238.50
2023-03-04T08:09:02.504Z,98244.38
2023-03-04T08:10:05.407Z,98239.97
2023-03-04T08:11:11.740Z,98237.25
2023-03-04T08:12:13.487Z,98235.59
2023-03-04T08:13:16.303Z,98237.25
2023-03-04T08:14:19.203Z,98244.28
2023-03-04T08:15:21.062Z,98246.03
2023-03-04T08:16:25.107Z,98235.84
2023-03-04T08:17:29.653Z,98246.22
2023-03-04T08:18:32.430Z,98239.47
2023-03-04T08:19:35.217Z,98235.16
2023-03-04T08:20:37.093Z,98237.72
2023-03-04T08:21:39.837Z,98249.75
2023-03-04T08:22:41.641Z,98242.88
2023-03-04T08:23:44.824Z,98238.66
2023-03-04T08:24:46.639Z,98243.78
2023-03-04T08:25:49.491Z,98245.44
2023-03-04T08:26:53.190Z,98242.88
2023-03-04T08:27:55.986Z,98241.13
2023-03-04T08:28:58.116Z,98240.31
2023-03-04T08:30:01.112Z,98240.31
2023-03-04T08:31:02.999Z,98243.69
2023-03-04T08:32:06.237Z,98240.31
2023-03-04T08:33:08.606Z,98246.28
2023-03-04T08:34:12.993Z,98244.47
2023-03-04T08:35:14.983Z,98241.81
2023-03-04T08:36:17.810Z,98241.81
2023-03-04T08:37:19.596Z,98242.47
2023-03-04T08:38:22.348Z,98249.28
2023-03-04T08:39:25.295Z,98238.97
2023-03-04T08:40:27.265Z,98245.88
2023-03-04T08:41:30.104Z,98249.38
2023-03-04T08:42:34.407Z,98239.81
2023-03-04T08:43:37.413Z,98242.28
2023-03-04T08:44:40.136Z,98240.41
2023-03-04T08:45:42.443Z,98236.16
2023-03-04T08:46:45.314Z,98242.22
2023-03-04T08:47:47.129Z,98249.03
2023-03-04T08:48:49.918Z,98248.13
2023-03-04T08:49:52.142Z,98246.47
2023-03-04T08:50:55.155Z,98240.50
2023-03-04T08:51:58.092Z,98238.75
2023-03-04T08:52:59.962Z,98241.31
2023-03-04T08:54:02.856Z,98235.16
2023-03-04T08:55:05.788Z,98237.81
2023-03-04T08:56:09.409Z,98234.34
2023-03-04T08:57:12.128Z,98230.00
2023-03-04T08:58:15.311Z,98241.06
2023-03-04T08:59:18.048Z,98235.84
2023-03-04T09:00:21.201Z,98235.00
2023-03-04T09:01:24.167Z,98235.75
2023-03-04T09:02:25.912Z,98247.69
2023-03-04T09:03:29.479Z,98244.13
2023-03-04T09:04:31.746Z,98237.25
2023-03-04T09:05:34.526Z,98239.72
2023-03-04T09:06:37.446Z,98238.81
2023-03-04T09:07:39.223Z,98237.09
2023-03-04T09:08:42.360Z,98239.66
2023-03-04T09:09:44.138Z,98232.00
2023-03-04T09:10:47.994Z,98220.88
2023-03-04T09:11:49.942Z,98238.06
2023-03-04T09:12:52.956Z,98231.16
2023-03-04T09:13:57.085Z,98235.34
2023-03-04T09:15:10.578Z,98232.75
2023-03-04T09:16:15.610Z,98239.56
2023-03-04T09:17:17.722Z,98233.34
2023-03-04T09:18:21.962Z,98226.34
2023-03-04T09:19:24.264Z,98235.00
2023-03-04T09:20:27.088Z,98229.94
2023-03-04T09:21:28.854Z,98229.03
2023-03-04T09:22:31.705Z,98223.13
2023-03-04T09:23:33.717Z,98230.00
2023-03-04T09:24:36.452Z,98224.78
2023-03-04T09:25:38.973Z,98225.63
2023-03-04T09:26:42.090Z,98227.38
2023-03-04T09:27:43.968Z,98225.69
2023-03-04T09:28:46.720Z,98234.31
2023-03-04T09:29:51.177Z,98233.41
2023-03-04T09:30:53.004Z,98235.09
2023-03-04T09:31:55.786Z,98229.94
2023-03-04T09:32:57.812Z,98227.38
2023-03-04T09:34:01.237Z,98229.94
2023-03-04T09:35:03.084Z,98231.69
2023-03-04T09:36:06.309Z,98225.63
2023-03-04T09:37:08.108Z,98229.94
2023-03-04T09:38:11.317Z,98224.78
2023-03-04T09:39:13.589Z,98229.28
2023-03-04T09:40:19.220Z,98231.09
2023-03-04T09:41:25.544Z,98218.25
2023-03-04T09:42:28.838Z,98228.53
2023-03-04T09:43:32.211Z,98222.47
2023-03-04T09:44:37.278Z,98224.94
2023-03-04T09:45:45.642Z,98218.06
2023-03-04T09:46:49.095Z,98224.13
2023-03-04T09:47:52.868Z,98229.28
2023-03-04T09:48:57.137Z,98224.84
2023-03-04T09:50:01.735Z,98229.13
2023-03-04T09:51:16.823Z,98226.53
2023-03-04T09:52:25.046Z,98227.38
2023-03-04T09:53:33.293Z,98221.47
2023-03-04T09:54:59.344Z,98227.28
2023-03-04T09:56:02.575Z,98226.44
2023-03-04T09:57:18.139Z,98236.56
2023-03-04T09:58:31.052Z,98226.19
2023-03-04T09:59:40.457Z,98231.41
2023-03-04T10:00:47.095Z,98222.97
2023-03-04T10:01:52.056Z,98234.91
2023-03-04T10:03:06.643Z,98230.59
2023-03-04T10:04:14.047Z,98219.31
2023-03-04T10:05:21.536Z,98227.84
2023-03-04T10:06:24.072Z,98221.78
2023-03-04T10:07:29.936Z,98216.53
2023-03-04T10:08:39.089Z,98220.81
2023-03-04T10:09:47.347Z,98223.28
2023-03-04T10:10:49.443Z,98215.38
2023-03-04T10:14:07.890Z,98219.06
2023-03-04T10:15:58.394Z,98210.56
2023-03-04T10:17:35.724Z,98213.09
2023-03-04T10:18:45.720Z,98203.63
2023-03-04T10:19:59.056Z,98206.00
2023-03-04T10:21:02.955Z,98205.06
2023-03-04T10:22:18.284Z,98207.50
2023-03-04T10:23:23.050Z,98201.41
2023-03-04T10:24:28.705Z,98203.00
2023-03-04T10:25:32.301Z,98198.50
2023-03-04T10:26:35.254Z,98203.50
2023-03-04T10:27:37.134Z,98195.59
2023-03-04T10:28:44.003Z,98196.44
2023-03-04T10:29:48.670Z,98186.97
2023-03-04T10:30:56.403Z,98192.09
2023-03-04T10:31:58.316Z,98191.28
2023-03-04T10:33:03.748Z,98181.06
2023-03-04T10:34:06.154Z,98181.16
2023-03-04T10:35:13.600Z,98189.78
2023-03-04T10:36:34.618Z,98192.38
2023-03-04T10:37:49.300Z,98188.19
2023-03-04T10:38:54.042Z,98190.06
2023-03-04T10:39:56.777Z,98183.16
2023-03-04T10:40:59.511Z,98179.75
2023-03-04T10:42:04.189Z,98174.75
2023-03-04T10:43:08.275Z,98179.09
2023-03-04T10:44:16.870Z,98180.94
2023-03-04T10:45:23.137Z,98171.56
2023-03-04T10:46:25.457Z,98180.19
2023-03-04T10:47:29.981Z,98173.47
2023-03-04T10:48:33.992Z,98170.06
2023-03-04T10:49:51.185Z,98169.25
2023-03-04T10:50:53.319Z,98171.06
2023-03-04T10:52:04.312Z,98172.91
2023-03-04T10:53:06.135Z,98169.50
2023-03-04T10:54:11.097Z,98162.59
2023-03-04T10:55:17.665Z,98178.03
2023-03-04T10:56:37.055Z,98165.28
2023-03-04T10:57:42.040Z,98159.47
2023-03-04T10:58:43.870Z,98169.75
2023-03-04T10:59:51.509Z,98160.28
2023-03-04T11:01:02.596Z,98157.81
2023-03-04T11:02:15.444Z,98158.72
2023-03-04T11:03:28.726Z,98160.38
2023-03-04T11:04:34.807Z,98158.78
2023-03-04T11:05:37.612Z,98158.91
2023-03-04T11:06:41.081Z,98155.41
2023-03-04T11:07:55.597Z,98157.16
2023-03-04T11:08:59.472Z,98157.97
2023-03-04T11:10:15.943Z,98157.16
2023-03-04T11:11:25.908Z,98149.53
2023-03-04T11:12:34.582Z,98158.16
2023-03-04T11:13:36.638Z,98153.09
2023-03-04T11:14:44.273Z,98156.50
2023-03-04T11:15:52.119Z,98147.09
2023-03-04T11:17:10.193Z,98159.25
2023-03-04T11:18:13.961Z,98155.00
2023-03-04T11:19:17.865Z,98151.53
2023-03-04T11:20:29.946Z,98163.47
2023-03-04T11:21:35.547Z,98155.66
2023-03-04T11:22:38.737Z,98153.09
2023-03-04T11:23:44.555Z,98159.00
2023-03-04T11:24:50.926Z,98152.91
2023-03-04T11:25:57.858Z,98151.28
2023-03-04T11:27:04.759Z,98152.19
2023-03-04T11:28:13.734Z,98145.47
2023-03-04T11:29:18.983Z,98144.72
2023-03-04T11:30:30.916Z,98138.66
2023-03-04T11:31:37.605Z,98147.47
2023-03-04T11:32:43.296Z,98143.97
2023-03-04T11:33:50.775Z,98139.75
2023-03-04T11:34:56.483Z,98141.41
2023-03-04T11:36:09.159Z,98142.06
2023-03-04T11:37:18.149Z,98135.16
2023-03-04T11:38:21.572Z,98129.19
2023-03-04T11:39:33.918Z,98136.91
2023-03-04T11:40:40.360Z,98131.69
2023-03-04T11:41:49.457Z,98134.19
2023-03-04T11:43:01.702Z,98132.44
2023-03-04T11:44:08.811Z,98134.09
2023-03-04T11:45:27.534Z,98128.03
2023-03-04T11:47:07.756Z,98125.44
2023-03-04T11:48:13.270Z,98124.78
2023-03-04T11:49:42.052Z,98122.97
2023-03-04T11:50:50.949Z,98128.84
2023-03-04T11:52:02.925Z,98127.88
2023-03-04T11:53:41.401Z,98121.69
2023-03-04T11:54:49.916Z,98120.88
2023-03-04T11:55:59.850Z,98125.91
2023-03-04T11:57:06.610Z,98114.81
2023-03-04T11:58:22.107Z,98095.91
2023-03-04T11:59:46.627Z,98122.53
2023-03-04T12:00:53.182Z,98114.91
2023-03-04T12:02:02.967Z,98122.72
2023-03-04T12:03:16.188Z,98115.91
2023-03-04T12:04:41.428Z,98113.50
2023-03-04T12:05:54.103Z,98109.28
2023-03-04T12:07:09.096Z,98107.63
2023-03-04T12:08:54.544Z,98111.09
2023-03-04T12:10:03.655Z,98104.41
2023-03-04T12:11:09.229Z,98109.44
2023-03-04T12:12:26.489Z,98106.06
2023-03-04T12:14:01.507Z,98112.03
2023-03-04T12:15:13.541Z,98112.84
2023-03-04T12:16:29.281Z,98105.88
2023-03-04T12:17:46.964Z,98107.63
2023-03-04T12:19:05.235Z,98107.44
2023-03-04T12:20:21.808Z,98103.22
2023-03-04T12:21:36.417Z,98106.63
2023-03-04T12:22:44.331Z,98114.25
2023-03-04T12:24:02.447Z,98108.19
2023-03-04T12:25:18.123Z,98095.03
2023-03-04T12:26:27.143Z,98087.25
2023-03-04T12:27:33.228Z,98093.03
2023-03-04T12:28:51.966Z,98097.19
2023-03-04T12:29:58.454Z,98102.25
2023-03-04T12:31:12.729Z,98098.69
2023-03-04T12:32:19.495Z,98097.56
2023-03-04T12:33:28.422Z,98102.53
2023-03-04T12:34:46.099Z,98096.31
2023-03-04T12:35:54.343Z,98097.97
2023-03-04T12:37:05.168Z,98088.31
2023-03-04T12:38:23.963Z,98101.19
2023-03-04T12:39:31.316Z,98090.78
2023-03-04T12:40:39.484Z,98097.44
2023-03-04T12:41:44.847Z,98091.34